createdAt,value
2019-01-05T00:01:27.543Z,101789.96
2019-01-05T00:04:15.633Z,101781.41
2019-01-05T00:07:22.979Z,101781.80
2019-01-05T00:10:30.228Z,101778.64
2019-01-05T00:13:18.778Z,101777.73
2019-01-05T00:16:27.257Z,101780.44
2019-01-05T00:19:34.618Z,101780.44
2019-01-05T00:22:43.916Z,101770.55
2019-01-05T00:25:33.346Z,101773.72
2019-01-05T00:28:41.849Z,101773.76
2019-01-05T00:31:49.108Z,101772.87
2019-01-05T00:34:59.622Z,101771.08
2019-01-05T00:38:08.635Z,101768.38
2019-01-05T00:41:17.352Z,101769.73
2019-01-05T00:44:26.122Z,101770.19
2019-01-05T00:47:34.850Z,101767.94
2019-01-05T00:50:43.905Z,101763.89
2019-01-05T00:53:52.387Z,101754.01
2019-01-05T00:57:01.120Z,101751.30
2019-01-05T01:00:09.883Z,101754.00
2019-01-05T01:03:18.609Z,101756.25
2019-01-05T01:06:27.330Z,101750.43
2019-01-05T01:09:34.692Z,101763.45
2019-01-05T01:12:22.659Z,101762.09
2019-01-05T01:18:25.968Z,101758.05
2019-01-05T01:21:14.233Z,101754.06
2019-01-05T01:24:23.057Z,101757.67
2019-01-05T01:27:31.843Z,101767.11
2019-01-05T01:30:40.578Z,101764.47
2019-01-05T01:33:49.312Z,101773.02
2019-01-05T01:36:58.305Z,101763.20
2019-01-05T01:43:02.299Z,101752.88
2019-01-05T01:46:11.030Z,101749.28
2019-01-05T01:52:28.428Z,101745.67
2019-01-05T01:55:36.939Z,101741.66
2019-01-05T01:58:45.675Z,101738.94
2019-01-05T02:01:54.456Z,101726.84
2019-01-05T02:05:03.274Z,101715.22
2019-01-05T02:08:11.993Z,101709.83
2019-01-05T02:11:22.213Z,101696.36
2019-01-05T02:14:30.693Z,101696.81
2019-01-05T02:24:33.344Z,101682.89
2019-01-05T02:27:59.522Z,101679.31
2019-01-05T02:31:14.308Z,101678.41
2019-01-05T02:34:40.796Z,101670.78
2019-01-05T02:37:54.880Z,101668.95
2019-01-05T02:41:21.018Z,101668.98
2019-01-05T02:44:47.398Z,101668.98
2019-01-05T02:48:13.558Z,101667.16
2019-01-05T02:51:28.036Z,101673.02
2019-01-05T02:58:12.292Z,101670.30
2019-01-05T03:01:38.415Z,101661.33
2019-01-05T03:04:51.799Z,101641.56
2019-01-05T03:08:17.917Z,101635.23
2019-01-05T03:11:44.044Z,101626.29
2019-01-05T03:21:50.654Z,101601.16
2019-01-05T03:25:16.787Z,101603.86
2019-01-05T03:28:43.146Z,101592.66
2019-01-05T03:32:09.278Z,101588.59
2019-01-05T03:35:35.672Z,101585.39
2019-01-05T03:39:01.886Z,101570.56
2019-01-05T03:42:28.002Z,101564.71
2019-01-05T03:45:54.127Z,101558.87
2019-01-05T03:49:20.245Z,101560.22
2019-01-05T03:52:34.740Z,101556.65
2019-01-05T03:59:22.172Z,101541.36
2019-01-05T04:02:46.535Z,101532.45
2019-01-05T04:06:12.668Z,101532.02
2019-01-05T04:13:10.920Z,101526.19
2019-01-05T04:16:37.065Z,101522.95
2019-01-05T04:20:03.177Z,101526.36
2019-01-05T04:23:29.337Z,101519.72
2019-01-05T04:26:59.120Z,101522.44
2019-01-05T04:30:16.968Z,101505.89
2019-01-05T04:33:55.175Z,101508.12
2019-01-05T04:40:41.178Z,101500.89
2019-01-05T04:47:29.399Z,101490.63
2019-01-05T04:50:55.540Z,101485.23
2019-01-05T04:54:18.236Z,101492.42
2019-01-05T04:57:44.351Z,101481.28
2019-01-05T05:01:10.465Z,101470.51
2019-01-05T05:04:36.592Z,101462.46
2019-01-05T05:08:02.727Z,101456.63
2019-01-05T05:11:28.842Z,101451.75
2019-01-05T05:14:55.015Z,101455.81
2019-01-05T05:18:21.176Z,101442.33
2019-01-05T05:21:35.471Z,101437.42
2019-01-05T05:25:01.850Z,101433.46
2019-01-05T05:28:15.361Z,101438.84
2019-01-05T05:31:41.505Z,101433.48
2019-01-05T05:35:04.075Z,101428.54
2019-01-05T05:38:30.456Z,101446.02
2019-01-05T05:41:56.572Z,101436.67
2019-01-05T05:45:20.739Z,101421.42
2019-01-05T05:52:19.488Z,101414.34
2019-01-05T05:55:45.644Z,101396.39
2019-01-05T05:59:11.789Z,101387.90
2019-01-05T06:09:32.720Z,101379.80
2019-01-05T06:12:58.837Z,101380.27
2019-01-05T06:16:27.832Z,101383.92
2019-01-05T06:19:53.961Z,101373.16
2019-01-05T06:26:56.831Z,101385.30
2019-01-05T06:30:10.877Z,101376.34
2019-01-05T06:33:22.736Z,101378.58
2019-01-05T06:36:46.148Z,101364.20
2019-01-05T06:40:08.867Z,101366.45
2019-01-05T06:43:35.024Z,101363.20
2019-01-05T06:47:01.151Z,101349.33
2019-01-05T06:50:27.272Z,101352.97
2019-01-05T06:53:53.399Z,101350.28
2019-01-05T06:57:19.527Z,101359.37
2019-01-05T07:00:45.673Z,101360.78
2019-01-05T07:04:11.831Z,101362.14
2019-01-05T07:07:29.676Z,101361.31
2019-01-05T07:10:55.825Z,101351.38
2019-01-05T07:14:24.784Z,101329.03
2019-01-05T07:17:50.933Z,101335.25
2019-01-05T07:21:17.049Z,101337.91
2019-01-05T07:24:45.986Z,101332.54
2019-01-05T07:28:02.339Z,101338.31
2019-01-05T07:31:28.491Z,101346.83
2019-01-05T07:34:54.871Z,101353.97
2019-01-05T07:38:21.023Z,101357.93
2019-01-05T07:41:42.662Z,101361.95
2019-01-05T07:45:06.351Z,101359.18
2019-01-05T07:48:32.464Z,101356.47
2019-01-05T07:51:58.596Z,101356.84
2019-01-05T07:55:24.724Z,101358.56
2019-01-05T07:58:50.866Z,101358.53
2019-01-05T08:02:25.693Z,101357.13
2019-01-05T08:05:51.826Z,101351.75
2019-01-05T08:09:06.627Z,101350.41
2019-01-05T08:12:32.751Z,101350.84
2019-01-05T08:15:58.900Z,101352.63
2019-01-05T08:19:25.266Z,101345.87
2019-01-05T08:22:51.422Z,101335.58
2019-01-05T08:26:20.375Z,101339.59
2019-01-05T08:29:39.385Z,101335.02
2019-01-05T08:36:26.930Z,101341.73
2019-01-05T08:39:36.336Z,101347.56
2019-01-05T08:43:02.497Z,101340.34
2019-01-05T08:46:28.633Z,101336.72
2019-01-05T08:49:45.382Z,101333.03
2019-01-05T08:53:11.517Z,101329.41
2019-01-05T08:59:58.995Z,101335.56
2019-01-05T09:03:14.413Z,101339.08
2019-01-05T09:06:40.583Z,101328.31
2019-01-05T09:10:06.700Z,101322.45
2019-01-05T09:13:32.824Z,101306.73
2019-01-05T09:16:59.199Z,101306.73
2019-01-05T09:23:57.111Z,101299.45
2019-01-05T09:27:23.224Z,101291.78
2019-01-05T09:30:49.354Z,101296.62
2019-01-05T09:34:15.485Z,101292.50
2019-01-05T09:37:41.607Z,101297.41
2019-01-05T09:41:07.979Z,101293.75
2019-01-05T09:44:27.530Z,101294.13
2019-01-05T09:47:53.658Z,101299.04
2019-01-05T09:51:19.789Z,101300.31
2019-01-05T09:54:45.937Z,101298.00
2019-01-05T09:58:12.053Z,101292.92
2019-01-05T10:01:26.652Z,101294.21
2019-01-05T10:04:52.764Z,101288.72
2019-01-05T10:08:19.184Z,101295.78
2019-01-05T10:11:45.595Z,101282.18
2019-01-05T10:15:11.771Z,101271.73
2019-01-05T10:18:37.889Z,101271.63
2019-01-05T10:22:04.015Z,101267.38
2019-01-05T10:25:30.144Z,101271.28
2019-01-05T10:28:56.507Z,101274.73
2019-01-05T10:32:22.718Z,101270.54
2019-01-05T10:35:48.866Z,101272.65
2019-01-05T10:39:14.982Z,101278.86
2019-01-05T10:42:41.139Z,101268.92
2019-01-05T10:46:07.288Z,101268.66
2019-01-05T10:49:33.651Z,101268.52
2019-01-05T10:52:46.791Z,101262.21
2019-01-05T10:56:13.171Z,101264.91
2019-01-05T10:59:39.544Z,101252.11
2019-01-05T11:02:58.161Z,101255.42
2019-01-05T11:06:13.290Z,101249.81
2019-01-05T11:12:58.857Z,101254.44
2019-01-05T11:19:52.688Z,101246.26
2019-01-05T11:23:18.813Z,101254.75
2019-01-05T11:26:44.934Z,101251.57
2019-01-05T11:30:11.383Z,101243.39
2019-01-05T11:33:37.543Z,101255.42
2019-01-05T11:37:03.650Z,101255.28
2019-01-05T11:40:29.784Z,101247.44
2019-01-05T11:43:55.954Z,101246.47
2019-01-05T11:47:22.153Z,101245.40
2019-01-05T11:50:48.276Z,101225.42
2019-01-05T11:54:14.521Z,101227.60
2019-01-05T11:57:43.423Z,101225.27
2019-01-05T12:01:01.853Z,101216.55
2019-01-05T12:07:50.940Z,101210.92
2019-01-05T12:11:13.620Z,101221.17
2019-01-05T12:14:37.187Z,101208.55
2019-01-05T12:18:03.316Z,101216.20
2019-01-05T12:24:54.482Z,101205.23
2019-01-05T12:28:18.964Z,101210.59
2019-01-05T12:31:45.339Z,101213.17
2019-01-05T12:38:45.259Z,101211.20
2019-01-05T12:45:35.130Z,101204.83
2019-01-05T12:49:01.302Z,101212.34
2019-01-05T12:52:27.427Z,101199.69
2019-01-05T12:55:53.593Z,101216.77
2019-01-05T12:59:18.339Z,101214.95
2019-01-05T13:02:44.740Z,101220.78
2019-01-05T13:05:58.763Z,101220.72
2019-01-05T13:13:02.953Z,101226.06
2019-01-05T13:16:29.116Z,101224.22
2019-01-05T13:23:15.188Z,101234.93
2019-01-05T13:26:41.381Z,101224.17
2019-01-05T13:29:57.189Z,101220.91
2019-01-05T13:33:23.316Z,101236.08
2019-01-05T13:36:49.455Z,101243.34
2019-01-05T13:40:15.835Z,101250.48
2019-01-05T13:43:41.966Z,101237.86
2019-01-05T13:47:08.113Z,101245.51
2019-01-05T13:53:55.470Z,101253.80
2019-01-05T13:57:04.956Z,101254.66
2019-01-05T14:00:12.588Z,101253.30
2019-01-05T14:03:00.493Z,101263.19
2019-01-05T14:06:07.414Z,101261.73
2019-01-05T14:11:50.775Z,101255.87
2019-01-05T14:14:38.905Z,101268.47
2019-01-05T14:17:26.739Z,101263.81
2019-01-05T14:20:33.752Z,101256.55
2019-01-05T14:23:21.762Z,101280.41
2019-01-05T14:26:09.581Z,101275.06
2019-01-05T14:29:16.872Z,101281.05
2019-01-05T14:32:05.027Z,101278.16
2019-01-05T14:34:53.507Z,101261.57
2019-01-05T14:38:01.051Z,101270.67
2019-01-05T14:40:49.557Z,101260.54
2019-01-05T14:43:37.968Z,101278.27
2019-01-05T14:46:45.341Z,101271.44
2019-01-05T14:49:52.631Z,101280.44
2019-01-05T14:52:52.697Z,101271.96
2019-01-05T14:55:59.618Z,101277.44
2019-01-05T14:58:47.438Z,101288.59
2019-01-05T15:01:54.956Z,101292.22
2019-01-05T15:05:02.239Z,101295.71
2019-01-05T15:07:50.416Z,101302.58
2019-01-05T15:10:57.392Z,101297.77
2019-01-05T15:13:45.788Z,101302.88
2019-01-05T15:16:33.953Z,101299.11
2019-01-05T15:19:21.842Z,101301.88
2019-01-05T15:22:10.012Z,101298.69
2019-01-05T15:24:58.164Z,101308.74
2019-01-05T15:27:45.988Z,101307.89
2019-01-05T15:30:52.934Z,101304.09
2019-01-05T15:33:40.750Z,101305.48
2019-01-05T15:36:48.034Z,101298.69
2019-01-05T15:39:35.887Z,101304.95
2019-01-05T15:42:43.149Z,101305.75
2019-01-05T15:45:31.038Z,101303.73
2019-01-05T15:48:18.887Z,101297.56
2019-01-05T15:51:06.716Z,101300.59
2019-01-05T15:53:54.875Z,101307.03
2019-01-05T15:56:43.350Z,101306.56
2019-01-05T15:59:31.244Z,101307.95
2019-01-05T16:02:19.700Z,101301.59
2019-01-05T16:05:07.593Z,101300.73
2019-01-05T16:08:14.883Z,101297.98
2019-01-05T16:11:02.981Z,101307.03
2019-01-05T16:13:50.814Z,101297.89
2019-01-05T16:16:38.714Z,101305.08
2019-01-05T16:19:45.990Z,101305.05
2019-01-05T16:22:53.368Z,101319.47
2019-01-05T16:25:41.254Z,101314.42
2019-01-05T16:28:23.358Z,101309.00
2019-01-05T16:31:11.261Z,101317.91
2019-01-05T16:34:15.816Z,101321.91
2019-01-05T16:37:03.990Z,101321.80
2019-01-05T16:40:10.960Z,101329.88
2019-01-05T16:43:17.922Z,101317.28
2019-01-05T16:45:59.736Z,101323.48
2019-01-05T16:48:47.908Z,101325.76
2019-01-05T16:51:35.801Z,101327.18
2019-01-05T16:54:23.878Z,101308.83
2019-01-05T16:57:11.702Z,101315.10
2019-01-05T16:59:59.765Z,101311.30
2019-01-05T17:02:47.907Z,101311.80
2019-01-05T17:05:35.863Z,101313.44
2019-01-05T17:08:43.124Z,101313.22
2019-01-05T17:11:31.018Z,101311.97
2019-01-05T17:14:19.527Z,101319.09
2019-01-05T17:17:26.714Z,101323.55
2019-01-05T17:20:15.046Z,101334.73
2019-01-05T17:22:58.644Z,101332.84
2019-01-05T17:25:46.760Z,101335.20
2019-01-05T17:28:35.120Z,101339.05
2019-01-05T17:31:22.984Z,101335.66
2019-01-05T17:34:20.980Z,101333.09
2019-01-05T17:37:09.229Z,101312.27
2019-01-05T17:39:51.557Z,101336.33
2019-01-05T17:42:39.879Z,101337.31
2019-01-05T17:45:46.878Z,101334.64
2019-01-05T17:48:34.701Z,101336.39
2019-01-05T17:51:47.258Z,101339.49
2019-01-05T17:54:31.901Z,101347.34
2019-01-05T17:57:19.732Z,101351.97
2019-01-05T18:00:08.257Z,101344.91
2019-01-05T18:02:56.092Z,101350.16
2019-01-05T18:05:44.012Z,101350.02
2019-01-05T18:08:51.271Z,101353.02
2019-01-05T18:11:39.186Z,101342.00
2019-01-05T18:14:27.320Z,101343.51
2019-01-05T18:17:15.501Z,101347.99
2019-01-05T18:20:03.661Z,101349.78
2019-01-05T18:23:10.574Z,101355.09
2019-01-05T18:25:58.713Z,101354.63
2019-01-05T18:28:47.310Z,101355.95
2019-01-05T18:31:35.510Z,101362.37
2019-01-05T18:34:23.654Z,101355.09
2019-01-05T18:37:31.071Z,101353.70
2019-01-05T18:40:38.283Z,101362.28
2019-01-05T18:43:26.530Z,101366.77
2019-01-05T18:46:33.446Z,101360.90
2019-01-05T18:49:21.791Z,101361.30
2019-01-05T18:52:10.986Z,101364.30
2019-01-05T18:54:59.532Z,101359.02
2019-01-05T18:58:07.064Z,101360.88
2019-01-05T19:01:14.059Z,101366.64
2019-01-05T19:04:02.131Z,101358.63
2019-01-05T19:07:03.629Z,101365.16
2019-01-05T19:09:51.954Z,101364.97
2019-01-05T19:12:59.260Z,101357.02
2019-01-05T19:15:47.128Z,101363.41
2019-01-05T19:21:24.720Z,101359.33
2019-01-05T19:24:12.649Z,101365.13
2019-01-05T19:27:00.442Z,101361.90
2019-01-05T19:29:48.344Z,101373.15
2019-01-05T19:32:36.168Z,101363.25
2019-01-05T19:35:24.289Z,101364.17
2019-01-05T19:38:12.670Z,101374.53
2019-01-05T19:41:00.519Z,101369.55
2019-01-05T19:43:48.649Z,101371.37
2019-01-05T19:46:55.688Z,101364.54
2019-01-05T19:50:03.226Z,101362.16
2019-01-05T19:53:10.248Z,101366.62
2019-01-05T19:55:58.081Z,101361.14
2019-01-05T19:58:45.895Z,101362.03
2019-01-05T20:01:33.799Z,101369.23
2019-01-05T20:04:40.761Z,101365.06
2019-01-05T20:07:48.014Z,101361.01
2019-01-05T20:10:55.469Z,101370.02
2019-01-05T20:13:59.095Z,101373.16
2019-01-05T20:16:47.081Z,101364.51
2019-01-05T20:19:34.893Z,101368.07
2019-01-05T20:22:42.409Z,101365.33
2019-01-05T20:25:30.480Z,101361.20
2019-01-05T20:28:35.619Z,101368.13
2019-01-05T20:31:42.895Z,101366.81
2019-01-05T20:34:30.879Z,101370.94
2019-01-05T20:37:18.712Z,101373.69
2019-01-05T20:40:06.772Z,101367.38
2019-01-05T20:42:54.925Z,101370.48
2019-01-05T20:45:43.080Z,101361.44
2019-01-05T20:48:31.228Z,101371.34
2019-01-05T20:51:28.779Z,101373.16
2019-01-05T20:54:16.763Z,101366.42
2019-01-05T20:57:03.527Z,101371.41
2019-01-05T20:59:51.654Z,101365.36
2019-01-05T21:02:40.226Z,101366.42
2019-01-05T21:05:28.496Z,101362.46
2019-01-05T21:08:16.911Z,101370.15
2019-01-05T21:11:05.287Z,101369.69
2019-01-05T21:14:12.351Z,101368.70
2019-01-05T21:17:21.075Z,101374.21
2019-01-05T21:20:09.160Z,101376.45
2019-01-05T21:23:16.388Z,101381.70
2019-01-05T21:26:25.136Z,101386.69
2019-01-05T21:29:33.642Z,101395.27
2019-01-05T21:32:16.104Z,101399.76
2019-01-05T21:35:04.320Z,101405.59
2019-01-05T21:38:11.336Z,101400.02
2019-01-05T21:41:00.084Z,101397.74
2019-01-05T21:44:08.924Z,101397.28
2019-01-05T21:46:56.750Z,101404.55
2019-01-05T21:49:44.577Z,101399.16
2019-01-05T21:52:32.701Z,101411.02
2019-01-05T21:55:22.586Z,101411.44
2019-01-05T21:58:12.508Z,101411.02
2019-01-05T22:00:51.955Z,101402.33
2019-01-05T22:03:38.439Z,101405.50
2019-01-05T22:06:26.600Z,101405.44
2019-01-05T22:09:14.702Z,101408.14
2019-01-05T22:12:03.258Z,101407.74
2019-01-05T22:15:10.278Z,101410.42
2019-01-05T22:17:58.416Z,101404.11
2019-01-05T22:21:05.428Z,101414.15
2019-01-05T22:24:12.941Z,101405.59
2019-01-05T22:27:01.093Z,101397.05
2019-01-05T22:30:10.060Z,101400.19
2019-01-05T22:32:57.880Z,101386.22
2019-01-05T22:35:46.015Z,101392.59
2019-01-05T22:38:34.101Z,101389.86
2019-01-05T22:41:22.187Z,101367.70
2019-01-05T22:44:21.672Z,101384.28
2019-01-05T22:47:28.673Z,101388.80
2019-01-05T22:50:36.024Z,101395.10
2019-01-05T22:53:23.992Z,101388.30
2019-01-05T22:56:33.018Z,101394.61
2019-01-05T23:02:16.740Z,101399.16
2019-01-05T23:05:23.933Z,101408.17
2019-01-05T23:08:12.501Z,101403.66
2019-01-05T23:11:00.406Z,101408.60
2019-01-05T23:14:09.334Z,101405.96
2019-01-05T23:16:57.728Z,101411.44
2019-01-05T23:19:45.717Z,101410.02
2019-01-05T23:22:33.703Z,101417.68
2019-01-05T23:25:21.899Z,101418.57
2019-01-05T23:28:10.390Z,101416.76
2019-01-05T23:31:17.419Z,101416.27
2019-01-05T23:34:05.234Z,101418.91
2019-01-05T23:37:12.915Z,101413.42
2019-01-05T23:40:00.766Z,101417.88
2019-01-05T23:43:07.733Z,101417.38
2019-01-05T23:46:15.275Z,101408.41
2019-01-05T23:49:03.474Z,101420.16
2019-01-05T23:51:51.606Z,101409.92
2019-01-05T23:54:39.422Z,101413.98
2019-01-05T23:57:27.564Z,101420.26
